createdAt,value
2023-03-08T00:01:22.432Z,23.30
2023-03-08T00:03:57.485Z,18.60
2023-03-08T00:06:37.224Z,21.33
2023-03-08T00:09:17.085Z,21.80
2023-03-08T00:11:46.459Z,20.40
2023-03-08T00:14:22.025Z,20.40
2023-03-08T00:16:51.034Z,18.57
2023-03-08T00:19:20.768Z,18.77
2023-03-08T00:21:57.632Z,21.60
2023-03-08T00:24:32.262Z,22.80
2023-03-08T00:27:12.817Z,20.20
2023-03-08T00:29:42.732Z,22.87
2023-03-08T00:32:25.015Z,18.00
2023-03-08T00:34:56.880Z,18.47
2023-03-08T00:37:27.320Z,20.57
2023-03-08T00:40:05.951Z,22.07
2023-03-08T00:42:44.916Z,17.60
2023-03-08T00:45:18.815Z,16.23
2023-03-08T00:47:54.565Z,16.60
2023-03-08T00:50:24.433Z,17.67
2023-03-08T00:52:53.855Z,15.33
2023-03-08T00:55:28.843Z,17.93
2023-03-08T00:58:02.434Z,15.60
2023-03-08T01:00:33.087Z,15.97
2023-03-08T01:03:13.144Z,13.63
2023-03-08T01:05:46.136Z,12.80
2023-03-08T01:08:19.626Z,16.17
2023-03-08T01:10:56.002Z,12.57
2023-03-08T01:13:27.418Z,12.90
2023-03-08T01:15:59.456Z,8.73
2023-03-08T01:18:29.641Z,12.13
2023-03-08T01:21:07.329Z,10.77
2023-03-08T01:23:45.599Z,13.00
2023-03-08T01:26:26.835Z,12.67
2023-03-08T01:29:01.406Z,12.83
2023-03-08T01:31:31.776Z,13.83
2023-03-08T01:34:02.334Z,10.57
2023-03-08T01:36:34.092Z,12.27
2023-03-08T01:39:05.815Z,12.43
2023-03-08T01:41:52.219Z,11.90
2023-03-08T01:44:24.702Z,10.60
2023-03-08T01:47:01.026Z,14.27
2023-03-08T01:49:50.036Z,11.60
2023-03-08T01:52:23.566Z,10.13
2023-03-08T01:54:56.916Z,11.87
2023-03-08T01:57:39.881Z,11.37
2023-03-08T02:00:22.981Z,12.90
2023-03-08T02:03:04.901Z,12.03
2023-03-08T02:05:35.990Z,10.13
2023-03-08T02:08:19.597Z,14.00
2023-03-08T02:10:50.541Z,13.57
2023-03-08T02:13:28.819Z,13.90
2023-03-08T02:15:59.708Z,10.77
2023-03-08T02:18:35.988Z,12.97
2023-03-08T02:21:07.147Z,12.93
2023-03-08T02:23:45.482Z,15.27
2023-03-08T02:26:14.983Z,12.93
2023-03-08T02:28:46.079Z,15.80
2023-03-08T02:31:24.367Z,13.33
2023-03-08T02:33:56.950Z,14.53
2023-03-08T02:36:30.442Z,13.27
2023-03-08T02:39:11.500Z,14.40
2023-03-08T02:41:42.913Z,13.47
2023-03-08T02:44:13.432Z,14.60
2023-03-08T02:46:42.172Z,14.83
2023-03-08T02:49:21.812Z,14.20
2023-03-08T02:51:56.172Z,15.33
2023-03-08T02:54:39.167Z,12.30
2023-03-08T02:57:18.356Z,15.33
2023-03-08T02:59:53.908Z,18.73
2023-03-08T03:02:32.884Z,16.17
2023-03-08T03:05:15.894Z,14.00
2023-03-08T03:07:45.233Z,13.23
2023-03-08T03:10:33.654Z,13.50
2023-03-08T03:13:06.610Z,20.63
2023-03-08T03:15:38.984Z,18.73
2023-03-08T03:18:16.069Z,13.50
2023-03-08T03:20:52.715Z,13.03
2023-03-08T03:23:24.293Z,13.30
2023-03-08T03:25:57.850Z,16.60
2023-03-08T03:28:28.376Z,14.97
2023-03-08T03:31:00.356Z,14.00
2023-03-08T03:33:36.624Z,15.40
2023-03-08T03:36:15.002Z,17.73
2023-03-08T03:38:45.614Z,13.73
2023-03-08T03:41:22.533Z,15.27
2023-03-08T03:43:56.283Z,14.63
2023-03-08T03:46:32.043Z,14.47
2023-03-08T03:49:07.281Z,14.93
2023-03-08T03:51:48.783Z,17.60
2023-03-08T03:54:34.934Z,15.70
2023-03-08T03:57:16.757Z,17.30
2023-03-08T03:59:48.592Z,15.10
2023-03-08T04:02:18.514Z,15.20
2023-03-08T04:04:59.301Z,18.63
2023-03-08T04:07:38.566Z,18.03
2023-03-08T04:10:15.259Z,19.30
2023-03-08T04:12:50.116Z,17.10
2023-03-08T04:15:25.848Z,13.47
2023-03-08T04:18:01.225Z,16.23
2023-03-08T04:20:34.140Z,13.47
2023-03-08T04:23:08.842Z,13.47
2023-03-08T04:25:42.266Z,17.00
2023-03-08T04:28:25.358Z,11.93
2023-03-08T04:30:57.439Z,15.60
2023-03-08T04:33:27.533Z,14.73
2023-03-08T04:35:56.311Z,13.07
2023-03-08T04:38:29.412Z,12.80
2023-03-08T04:41:07.693Z,15.60
2023-03-08T04:43:52.679Z,12.63
2023-03-08T04:46:30.397Z,16.30
2023-03-08T04:49:08.794Z,18.00
2023-03-08T04:51:46.191Z,18.43
2023-03-08T04:54:19.756Z,13.30
2023-03-08T04:57:00.913Z,16.00
2023-03-08T04:59:33.267Z,13.50
2023-03-08T05:02:07.628Z,16.07
2023-03-08T05:04:42.103Z,15.20
2023-03-08T05:07:13.786Z,15.00
2023-03-08T05:09:45.508Z,15.67
2023-03-08T05:12:20.855Z,14.30
2023-03-08T05:15:05.318Z,19.63
2023-03-08T05:17:36.819Z,12.40
2023-03-08T05:20:17.909Z,17.93
2023-03-08T05:22:58.287Z,14.83
2023-03-08T05:25:39.950Z,12.90
2023-03-08T05:28:16.991Z,17.43
2023-03-08T05:30:54.412Z,17.93
2023-03-08T05:33:24.224Z,19.37
2023-03-08T05:36:04.164Z,17.53
2023-03-08T05:38:41.778Z,16.60
2023-03-08T05:41:21.348Z,16.03
2023-03-08T05:43:58.634Z,17.27
2023-03-08T05:46:34.576Z,23.93
2023-03-08T05:49:07.194Z,18.57
2023-03-08T05:51:42.372Z,16.40
2023-03-08T05:54:17.414Z,15.80
2023-03-08T05:56:49.326Z,19.10
2023-03-08T05:59:29.217Z,18.60
2023-03-08T06:02:06.337Z,14.40
2023-03-08T06:04:50.238Z,14.37
2023-03-08T06:07:29.988Z,15.97
2023-03-08T06:10:19.367Z,19.70
2023-03-08T06:12:48.339Z,19.00
2023-03-08T06:15:28.448Z,16.23
2023-03-08T06:18:02.789Z,19.67
2023-03-08T06:20:35.194Z,19.03
2023-03-08T06:23:07.272Z,14.77
2023-03-08T06:25:36.942Z,19.23
2023-03-08T06:28:06.431Z,14.60
2023-03-08T06:30:40.306Z,18.70
2023-03-08T06:33:18.307Z,16.40
2023-03-08T06:35:57.757Z,16.30
2023-03-08T06:38:31.785Z,18.47
2023-03-08T06:41:15.678Z,14.70
2023-03-08T06:44:12.091Z,18.00
2023-03-08T06:46:46.172Z,14.43
2023-03-08T06:49:21.099Z,16.10
2023-03-08T06:51:53.192Z,17.53
2023-03-08T06:54:24.426Z,17.80
2023-03-08T06:57:00.076Z,16.97
2023-03-08T06:59:32.699Z,16.37
2023-03-08T07:02:14.417Z,14.60
2023-03-08T07:04:51.254Z,13.97
2023-03-08T07:07:19.917Z,15.17
2023-03-08T07:09:51.151Z,16.17
2023-03-08T07:12:19.505Z,19.60
2023-03-08T07:14:48.017Z,11.80
2023-03-08T07:17:17.418Z,14.83
2023-03-08T07:19:52.793Z,13.30
2023-03-08T07:22:32.863Z,11.30
2023-03-08T07:25:03.551Z,30.07
2023-03-08T07:27:33.549Z,12.00
2023-03-08T07:30:05.144Z,13.00
2023-03-08T07:32:34.457Z,15.23
2023-03-08T07:35:08.930Z,13.67
2023-03-08T07:37:40.612Z,13.13
2023-03-08T07:40:16.831Z,19.13
2023-03-08T07:42:48.335Z,14.23
2023-03-08T07:45:39.005Z,14.30
2023-03-08T07:48:11.208Z,11.07
2023-03-08T07:50:51.126Z,11.40
2023-03-08T07:53:31.660Z,10.30
2023-03-08T07:56:05.614Z,13.30
2023-03-08T07:58:39.549Z,10.80
2023-03-08T08:01:10.475Z,11.80
2023-03-08T08:03:49.233Z,10.30
2023-03-08T08:06:23.491Z,9.20
2023-03-08T08:08:53.622Z,9.70
2023-03-08T08:11:24.619Z,9.57
2023-03-08T08:13:56.474Z,9.43
2023-03-08T08:16:28.032Z,7.90
2023-03-08T08:19:01.496Z,9.37
2023-03-08T08:21:39.451Z,12.53
2023-03-08T08:24:17.718Z,11.90
2023-03-08T08:26:51.536Z,10.47
2023-03-08T08:29:23.935Z,7.83
2023-03-08T08:31:55.408Z,7.70
2023-03-08T08:34:33.533Z,10.47
2023-03-08T08:37:12.370Z,8.30
2023-03-08T08:39:50.705Z,6.00
2023-03-08T08:42:22.782Z,6.70
2023-03-08T08:44:54.062Z,9.87
2023-03-08T08:47:33.725Z,10.23
2023-03-08T08:50:05.501Z,7.30
2023-03-08T08:52:38.490Z,8.50
2023-03-08T08:55:08.743Z,8.60
2023-03-08T08:57:37.809Z,8.27
2023-03-08T09:00:20.761Z,6.53
2023-03-08T09:02:54.495Z,7.10
2023-03-08T09:05:28.613Z,7.77
2023-03-08T09:08:15.648Z,6.80
2023-03-08T09:10:53.154Z,6.63
2023-03-08T09:13:23.221Z,8.20
2023-03-08T09:15:59.328Z,8.20
2023-03-08T09:18:29.236Z,8.63
2023-03-08T09:21:07.871Z,8.43
2023-03-08T09:23:38.775Z,8.90
2023-03-08T09:26:07.741Z,9.13
2023-03-08T09:28:37.365Z,10.80
2023-03-08T09:31:19.866Z,8.80
2023-03-08T09:33:52.336Z,9.97
2023-03-08T09:36:24.797Z,8.27
2023-03-08T09:39:04.179Z,11.13
2023-03-08T09:41:58.581Z,8.47
2023-03-08T09:44:55.774Z,7.97
2023-03-08T09:47:40.607Z,8.10
2023-03-08T09:50:34.950Z,7.73
2023-03-08T09:53:20.213Z,9.77
2023-03-08T09:56:00.057Z,9.10
2023-03-08T09:58:45.371Z,8.10
2023-03-08T10:01:53.266Z,7.53
2023-03-08T10:04:41.188Z,7.57
2023-03-08T10:07:28.569Z,9.37
2023-03-08T10:10:28.296Z,8.40
2023-03-08T10:13:30.670Z,10.83
2023-03-08T10:16:07.208Z,7.30
2023-03-08T10:18:42.746Z,9.37
2023-03-08T10:21:21.093Z,7.30
2023-03-08T10:23:56.440Z,12.10
2023-03-08T10:26:29.953Z,9.60
2023-03-08T10:29:07.309Z,10.70
2023-03-08T10:31:42.392Z,15.47
2023-03-08T10:34:14.415Z,8.20
2023-03-08T10:36:54.836Z,13.03
2023-03-08T10:39:27.974Z,9.23
2023-03-08T10:42:00.697Z,10.40
2023-03-08T10:44:51.310Z,15.60
2023-03-08T10:47:23.035Z,12.73
2023-03-08T10:50:16.540Z,17.63
2023-03-08T10:52:48.499Z,13.23
2023-03-08T10:55:20.573Z,13.20
2023-03-08T10:57:55.146Z,14.93
2023-03-08T11:00:35.398Z,17.77
2023-03-08T11:03:08.972Z,16.20
2023-03-08T11:05:38.744Z,19.63
2023-03-08T11:08:25.046Z,24.27
2023-03-08T11:11:13.080Z,18.43
2023-03-08T11:13:42.945Z,24.40
2023-03-08T11:16:46.429Z,22.50
2023-03-08T11:19:44.654Z,22.23
2023-03-08T11:22:28.520Z,22.37
2023-03-08T11:25:20.835Z,21.03
2023-03-08T11:28:18.360Z,18.20
2023-03-08T11:31:00.340Z,21.33
2023-03-08T11:33:58.243Z,19.30
2023-03-08T11:36:32.694Z,23.20
2023-03-08T11:39:12.853Z,22.23
2023-03-08T11:41:49.278Z,17.30
2023-03-08T11:44:45.225Z,18.90
2023-03-08T11:47:59.389Z,23.07
2023-03-08T11:50:44.612Z,18.17
2023-03-08T11:53:22.832Z,16.40
2023-03-08T11:56:03.083Z,19.33
2023-03-08T11:58:38.182Z,16.53
2023-03-08T12:01:16.241Z,20.97
2023-03-08T12:03:58.740Z,25.53
2023-03-08T12:06:37.353Z,22.47
2023-03-08T12:09:17.320Z,23.97
2023-03-08T12:11:51.492Z,19.50
2023-03-08T12:14:26.336Z,24.03
2023-03-08T12:17:00.759Z,20.97
2023-03-08T12:19:41.118Z,21.87
2023-03-08T12:22:33.779Z,18.83
2023-03-08T12:25:10.709Z,17.20
2023-03-08T12:27:48.171Z,24.00
2023-03-08T12:30:27.456Z,22.70
2023-03-08T12:32:58.569Z,22.50
2023-03-08T12:35:30.608Z,24.93
2023-03-08T12:38:08.014Z,27.43
2023-03-08T12:40:42.115Z,19.93
2023-03-08T12:43:14.293Z,28.13
2023-03-08T12:45:54.234Z,21.33
2023-03-08T12:48:26.168Z,20.67
2023-03-08T12:51:04.281Z,21.30
2023-03-08T12:53:43.234Z,21.80
2023-03-08T12:56:27.438Z,21.70
2023-03-08T12:59:08.147Z,25.20
2023-03-08T13:01:39.125Z,25.37
2023-03-08T13:04:40.387Z,25.23
2023-03-08T13:07:39.520Z,24.90
2023-03-08T13:10:30.203Z,21.80
2023-03-08T13:13:36.690Z,23.13
2023-03-08T13:16:25.467Z,24.57
2023-03-08T13:19:07.499Z,25.80
2023-03-08T13:21:46.105Z,23.17
2023-03-08T13:24:21.441Z,20.97
2023-03-08T13:27:20.153Z,19.60
2023-03-08T13:29:51.909Z,20.70
2023-03-08T13:32:24.824Z,22.10
2023-03-08T13:35:00.504Z,22.30
2023-03-08T13:37:32.195Z,20.03
2023-03-08T13:40:11.031Z,20.60
2023-03-08T13:42:54.152Z,22.73
2023-03-08T13:45:25.341Z,24.97
2023-03-08T13:47:55.838Z,22.87
2023-03-08T13:50:34.909Z,22.70
2023-03-08T13:53:15.802Z,19.27
2023-03-08T13:55:56.799Z,20.97
2023-03-08T13:58:39.873Z,21.20
2023-03-08T14:01:14.643Z,21.03
2023-03-08T14:03:47.935Z,20.80
2023-03-08T14:06:30.134Z,19.47
2023-03-08T14:09:02.197Z,25.83
2023-03-08T14:11:32.496Z,18.33
2023-03-08T14:14:11.047Z,16.93
2023-03-08T14:16:41.968Z,26.60
2023-03-08T14:19:20.800Z,24.00
2023-03-08T14:21:50.010Z,14.27
2023-03-08T14:24:22.017Z,24.90
2023-03-08T14:27:00.899Z,20.77
2023-03-08T14:29:41.537Z,22.60
2023-03-08T14:32:33.167Z,15.37
2023-03-08T14:35:12.151Z,24.83
2023-03-08T14:37:52.133Z,18.43
2023-03-08T14:40:28.238Z,17.43
2023-03-08T14:43:06.458Z,20.30
2023-03-08T14:45:45.684Z,16.70
2023-03-08T14:48:27.327Z,17.33
2023-03-08T14:51:09.478Z,17.30
2023-03-08T14:53:49.997Z,19.87
2023-03-08T14:56:20.862Z,13.43
2023-03-08T14:58:54.130Z,19.77
2023-03-08T15:01:32.084Z,16.87
2023-03-08T15:04:09.871Z,17.13
2023-03-08T15:06:44.462Z,18.33
2023-03-08T15:09:16.120Z,16.83
2023-03-08T15:11:50.111Z,16.60
2023-03-08T15:14:20.906Z,16.37
2023-03-08T15:17:00.801Z,16.10
2023-03-08T15:19:30.074Z,16.73
2023-03-08T15:22:01.628Z,15.60
2023-03-08T15:24:33.445Z,18.07
2023-03-08T15:27:10.966Z,15.30
2023-03-08T15:29:42.776Z,15.03
2023-03-08T15:32:13.691Z,23.40
2023-03-08T15:34:43.632Z,22.30
2023-03-08T15:37:15.869Z,18.37
2023-03-08T15:39:45.176Z,18.67
2023-03-08T15:42:14.966Z,19.20
2023-03-08T15:44:53.653Z,17.57
2023-03-08T15:47:40.021Z,18.00
2023-03-08T15:50:21.083Z,18.53
2023-03-08T15:52:59.930Z,17.23
2023-03-08T15:55:40.964Z,16.30
2023-03-08T15:58:12.144Z,18.20
2023-03-08T16:00:46.236Z,16.63
2023-03-08T16:03:32.336Z,15.70
2023-03-08T16:06:09.822Z,17.77
2023-03-08T16:08:38.473Z,13.13
2023-03-08T16:11:24.182Z,18.37
2023-03-08T16:13:54.230Z,18.90
2023-03-08T16:16:42.325Z,15.17
2023-03-08T16:19:26.072Z,18.60
2023-03-08T16:22:03.140Z,19.40
2023-03-08T16:24:34.510Z,17.30
2023-03-08T16:27:15.711Z,17.33
2023-03-08T16:29:51.760Z,19.30
2023-03-08T16:32:21.717Z,19.03
2023-03-08T16:35:00.751Z,20.43
2023-03-08T16:37:29.786Z,18.50
2023-03-08T16:40:09.450Z,18.00
2023-03-08T16:42:41.994Z,19.50
2023-03-08T16:45:21.578Z,16.90
2023-03-08T16:47:57.988Z,22.07
2023-03-08T16:50:30.553Z,17.83
2023-03-08T16:53:07.521Z,24.63
2023-03-08T16:55:43.311Z,16.10
2023-03-08T16:58:19.709Z,21.60
2023-03-08T17:00:57.311Z,16.60
2023-03-08T17:03:28.409Z,16.20
2023-03-08T17:06:04.700Z,22.00
2023-03-08T17:08:42.784Z,20.90
2023-03-08T17:11:26.206Z,22.13
2023-03-08T17:14:02.323Z,24.30
2023-03-08T17:16:33.437Z,22.60
2023-03-08T17:19:06.534Z,22.70
2023-03-08T17:22:18.055Z,17.67
2023-03-08T17:24:50.659Z,18.67
2023-03-08T17:27:25.402Z,19.53
2023-03-08T17:30:04.311Z,22.63
2023-03-08T17:32:40.231Z,17.17
2023-03-08T17:35:18.481Z,15.73
2023-03-08T17:37:55.108Z,17.40
2023-03-08T17:40:32.761Z,22.37
2023-03-08T17:43:14.386Z,15.10
2023-03-08T17:45:58.184Z,17.70
2023-03-08T17:48:35.810Z,13.87
2023-03-08T17:51:05.121Z,15.87
2023-03-08T17:53:44.333Z,17.60
2023-03-08T17:56:34.676Z,14.00
2023-03-08T17:59:15.212Z,15.93
2023-03-08T18:01:49.466Z,16.67
2023-03-08T18:04:30.254Z,11.87
2023-03-08T18:07:11.511Z,13.50
2023-03-08T18:09:49.560Z,21.03
2023-03-08T18:12:35.922Z,14.47
2023-03-08T18:15:19.424Z,14.00
2023-03-08T18:18:01.356Z,23.97
2023-03-08T18:20:36.778Z,15.27
2023-03-08T18:23:09.158Z,15.93
2023-03-08T18:25:44.851Z,16.63
2023-03-08T18:31:05.521Z,13.80
2023-03-08T18:34:04.085Z,13.50
2023-03-08T18:36:37.810Z,13.17
2023-03-08T18:39:17.177Z,14.63
2023-03-08T18:42:01.141Z,11.93
2023-03-08T18:44:39.051Z,15.97
2023-03-08T18:47:23.899Z,17.87
2023-03-08T18:49:56.708Z,16.37
2023-03-08T18:52:28.607Z,13.67
2023-03-08T18:55:12.228Z,12.80
2023-03-08T18:57:55.792Z,10.90
2023-03-08T19:00:42.579Z,17.03
2023-03-08T19:03:23.879Z,14.30
2023-03-08T19:06:05.748Z,12.87
2023-03-08T19:08:39.050Z,17.70
2023-03-08T19:11:21.045Z,14.33
2023-03-08T19:13:54.810Z,14.00
2023-03-08T19:16:29.888Z,18.23
2023-03-08T19:19:19.062Z,14.20
2023-03-08T19:22:01.109Z,13.73
2023-03-08T19:24:36.901Z,14.47
2023-03-08T19:27:25.753Z,13.20
2023-03-08T19:29:57.230Z,14.83
2023-03-08T19:32:37.949Z,16.47
2023-03-08T19:35:10.527Z,13.20
2023-03-08T19:37:52.898Z,13.50
2023-03-08T19:40:24.933Z,14.67
2023-03-08T19:43:04.378Z,17.20
2023-03-08T19:45:38.526Z,11.20
2023-03-08T19:48:12.776Z,13.40
2023-03-08T19:51:03.882Z,14.97
2023-03-08T19:53:55.881Z,12.07
2023-03-08T19:56:52.321Z,13.23
2023-03-08T19:59:32.742Z,15.77
2023-03-08T20:02:18.364Z,16.13
2023-03-08T20:05:14.320Z,13.10
2023-03-08T20:07:58.190Z,19.00
2023-03-08T20:10:39.612Z,15.53
2023-03-08T20:13:09.650Z,11.60
2023-03-08T20:15:56.492Z,13.63
2023-03-08T20:18:48.438Z,10.10
2023-03-08T20:21:40.550Z,14.13
2023-03-08T20:24:27.587Z,15.60
2023-03-08T20:27:08.959Z,12.47
2023-03-08T20:29:53.648Z,13.57
2023-03-08T20:32:35.508Z,13.00
2023-03-08T20:35:11.445Z,14.17
2023-03-08T20:37:50.681Z,13.50
2023-03-08T20:40:39.726Z,13.60
2023-03-08T20:43:18.038Z,12.70
2023-03-08T20:46:07.588Z,17.07
2023-03-08T20:48:44.017Z,13.67
2023-03-08T20:51:29.272Z,11.73
2023-03-08T20:54:12.731Z,11.80
2023-03-08T20:56:55.248Z,12.73
2023-03-08T20:59:30.981Z,13.00
2023-03-08T21:02:10.299Z,14.10
2023-03-08T21:05:01.058Z,16.97
2023-03-08T21:07:37.030Z,13.13
2023-03-08T21:10:15.163Z,11.37
2023-03-08T21:12:47.116Z,13.33
2023-03-08T21:15:20.795Z,15.20
2023-03-08T21:17:52.850Z,16.90
2023-03-08T21:20:28.458Z,10.90
2023-03-08T21:23:08.121Z,13.10
2023-03-08T21:25:49.024Z,14.93
2023-03-08T21:28:21.932Z,11.23
2023-03-08T21:30:57.665Z,11.13
2023-03-08T21:33:35.311Z,13.87
2023-03-08T21:36:18.480Z,15.27
2023-03-08T21:38:53.783Z,14.50
2023-03-08T21:41:54.081Z,11.63
2023-03-08T21:44:33.399Z,21.10
2023-03-08T21:47:14.114Z,15.17
2023-03-08T21:49:46.301Z,10.57
2023-03-08T21:52:28.457Z,9.97
2023-03-08T21:55:05.506Z,9.80
2023-03-08T21:57:41.084Z,9.13
2023-03-08T22:00:19.920Z,12.80
2023-03-08T22:02:55.212Z,9.90
2023-03-08T22:05:35.932Z,10.60
2023-03-08T22:08:10.669Z,14.30
2023-03-08T22:10:40.234Z,15.50
2023-03-08T22:13:22.933Z,17.40
2023-03-08T22:15:52.758Z,20.17
2023-03-08T22:18:27.666Z,14.70
2023-03-08T22:20:58.160Z,16.70
2023-03-08T22:23:35.496Z,13.70
2023-03-08T22:26:09.601Z,11.40
2023-03-08T22:28:45.641Z,10.27
2023-03-08T22:31:17.672Z,14.33
2023-03-08T22:33:48.169Z,10.10
2023-03-08T22:36:26.677Z,13.53
2023-03-08T22:39:01.542Z,8.30
2023-03-08T22:41:33.459Z,7.30
2023-03-08T22:44:09.751Z,9.57
2023-03-08T22:46:40.455Z,10.23
2023-03-08T22:49:17.016Z,6.73
2023-03-08T22:51:59.106Z,12.97
2023-03-08T22:54:29.378Z,10.37
2023-03-08T22:56:58.912Z,6.27
2023-03-08T22:59:36.516Z,12.33
2023-03-08T23:02:10.148Z,11.00
2023-03-08T23:04:43.905Z,7.67
2023-03-08T23:07:29.756Z,10.83
2023-03-08T23:09:58.546Z,10.70
2023-03-08T23:12:29.647Z,8.10
2023-03-08T23:15:00.572Z,7.80
2023-03-08T23:17:39.215Z,10.23
2023-03-08T23:20:12.366Z,15.03
2023-03-08T23:22:45.549Z,8.30
2023-03-08T23:25:25.503Z,9.00
2023-03-08T23:27:56.132Z,9.20
2023-03-08T23:30:30.365Z,8.00
2023-03-08T23:33:00.130Z,9.83
2023-03-08T23:35:37.061Z,11.00
2023-03-08T23:38:07.896Z,7.27
2023-03-08T23:40:46.683Z,7.60
2023-03-08T23:43:20.846Z,7.67
2023-03-08T23:45:59.314Z,7.40
2023-03-08T23:48:28.866Z,9.90
2023-03-08T23:50:58.119Z,10.13
2023-03-08T23:53:35.923Z,11.53
2023-03-08T23:56:07.998Z,9.33
2023-03-08T23:58:50.545Z,11.70
